Time;durP1;ratioP1;P1;durP2;ratioP2;P2;SDS_P1;SDS_P2;PMS_P1;PMS_P2;Temp;Humidity;BMP_temperature;BMP_pressure;BME280_temperature;BME280_humidity;BME280_pressure;Samples;Min_cycle;Max_cycle;Signal;HPM_P1;HPM_P2
2023/02/08 00:01:37;;;;;;;;;;;;;;;17.36;34.12;102602.78;4961612;28;882;-43
2023/02/08 00:04:03;;;;;;;;;;;;;;;16.25;36.07;102603.66;4957147;28;1907;-48
2023/02/08 00:06:28;;;;;;;;;;;;;;;15.66;37.27;102608.59;4957127;28;1146;-45
2023/02/08 00:08:54;;;;;;;;;;;;;;;15.33;37.83;102601.47;4957340;28;1089;-48
2023/02/08 00:11:19;;;;;;;;;;;;;;;16.65;35.56;102596.06;4957520;28;1149;-45
2023/02/08 00:13:45;;;;;;;;;;;;;;;17.38;34.03;102599.78;4968452;28;1130;-46
2023/02/08 00:16:11;;;;;;;;;;;;;;;16.15;36.53;102600.63;4957146;28;1088;-44
2023/02/08 00:18:36;;;;;;;;;;;;;;;15.65;37.31;102606.91;4958051;28;1227;-47
2023/02/08 00:21:06;;;;;;;;;;;;;;;15.36;37.85;102600.16;4960927;28;1137;-47
2023/02/08 00:23:31;;;;;;;;;;;;;;;16.60;35.47;102599.50;4960586;28;1978;-46
2023/02/08 00:25:57;;;;;;;;;;;;;;;17.28;34.18;102605.84;4966159;28;922;-48
2023/02/08 00:28:22;;;;;;;;;;;;;;;16.12;36.50;102608.44;4960356;28;1057;-46
2023/02/08 00:30:48;;;;;;;;;;;;;;;15.60;37.25;102606.75;4943138;29;1235;-45
2023/02/08 00:33:14;;;;;;;;;;;;;;;15.24;38.18;102600.03;4960433;28;1144;-48
2023/02/08 00:35:41;;;;;;;;;;;;;;;16.47;35.91;102610.66;4960569;28;1073;-48
2023/02/08 00:38:06;;;;;;;;;;;;;;;17.24;34.39;102604.66;4972376;28;1208;-46
2023/02/08 00:40:31;;;;;;;;;;;;;;;16.05;36.63;102609.38;4960251;28;1085;-46
2023/02/08 00:42:57;;;;;;;;;;;;;;;15.59;37.54;102609.72;4960072;28;1077;-46
2023/02/08 00:45:22;;;;;;;;;;;;;;;15.25;38.11;102615.44;4943023;29;1973;-47
2023/02/08 00:47:48;;;;;;;;;;;;;;;16.54;35.92;102612.25;4955707;29;1134;-45
2023/02/08 00:50:13;;;;;;;;;;;;;;;17.49;34.08;102617.38;4966198;28;894;-50
2023/02/08 00:52:39;;;;;;;;;;;;;;;16.49;35.67;102614.81;4960362;28;1197;-48
2023/02/08 00:55:04;;;;;;;;;;;;;;;15.81;37.19;102627.50;4960678;28;1154;-49
2023/02/08 00:57:33;;;;;;;;;;;;;;;15.42;38.02;102620.34;4973002;28;1153;-46
2023/02/08 00:59:58;;;;;;;;;;;;;;;15.65;37.54;102625.28;4959842;28;1042;-49
2023/02/08 01:02:23;;;;;;;;;;;;;;;17.12;34.58;102634.00;4961024;28;940;-47
2023/02/08 01:04:50;;;;;;;;;;;;;;;16.70;35.20;102632.75;4960070;28;1987;-47
2023/02/08 01:07:15;;;;;;;;;;;;;;;15.88;36.87;102624.72;4959449;28;1051;-48
2023/02/08 01:09:41;;;;;;;;;;;;;;;15.46;37.79;102633.44;4959663;28;1148;-45
2023/02/08 01:12:07;;;;;;;;;;;;;;;15.43;37.87;102642.09;4959786;28;1177;-49
2023/02/08 01:14:32;;;;;;;;;;;;;;;17.05;34.84;102639.56;4967652;28;906;-45
2023/02/08 01:16:58;;;;;;;;;;;;;;;16.65;35.23;102629.88;4959889;28;1162;-47
2023/02/08 01:19:23;;;;;;;;;;;;;;;15.79;37.19;102643.34;4942348;29;1251;-46
2023/02/08 01:21:48;;;;;;;;;;;;;;;15.43;37.90;102643.97;4962399;28;1120;-47
2023/02/08 01:24:14;;;;;;;;;;;;;;;15.73;37.26;102636.81;4969582;28;1915;-48
2023/02/08 01:26:40;;;;;;;;;;;;;;;17.18;34.56;102653.16;4961704;28;885;-46
2023/02/08 01:29:05;;;;;;;;;;;;;;;16.49;35.77;102645.03;4959560;28;1124;-48
2023/02/08 01:31:32;;;;;;;;;;;;;;;15.76;37.31;102653.91;4961492;28;1090;-48
2023/02/08 01:33:58;;;;;;;;;;;;;;;15.40;37.76;102656.22;4968778;28;1120;-46
2023/02/08 01:36:24;;;;;;;;;;;;;;;16.57;35.66;102654.91;4959076;28;1089;-50
2023/02/08 01:38:49;;;;;;;;;;;;;;;17.26;34.42;102651.97;4951278;29;1474;-46
2023/02/08 01:41:26;;;;;;;;;;;;;;;16.10;36.23;102654.50;4959501;28;1265;-46
2023/02/08 01:44:01;;;;;;;;;;;;;;;15.55;37.49;102655.94;4959244;28;1978;-47
2023/02/08 01:46:27;;;;;;;;;;;;;;;15.29;38.25;102655.03;4959200;28;1217;-46
2023/02/08 01:48:53;;;;;;;;;;;;;;;16.65;35.48;102661.97;4944727;28;1453;-46
2023/02/08 01:51:21;;;;;;;;;;;;;;;17.26;34.20;102662.97;4959396;28;1181;-47
2023/02/08 01:53:47;;;;;;;;;;;;;;;16.06;36.53;102676.91;4942067;29;1082;-48
2023/02/08 01:56:14;;;;;;;;;;;;;;;15.60;37.58;102667.09;4958728;28;1229;-47
2023/02/08 01:58:42;;;;;;;;;;;;;;;15.26;38.08;102677.38;4942042;29;1215;-48
2023/02/08 02:01:07;;;;;;;;;;;;;;;16.82;35.34;102675.97;4943708;29;1373;-46
2023/02/08 02:03:33;;;;;;;;;;;;;;;17.39;34.03;102672.94;4958878;28;1899;-49
2023/02/08 02:06:22;;;;;;;;;;;;;;;16.14;36.55;102675.78;4942253;29;1257;-47
2023/02/08 02:08:52;;;;;;;;;;;;;;;15.62;37.37;102688.81;4953506;28;1249;-47
2023/02/08 02:11:18;;;;;;;;;;;;;;;15.33;38.02;102688.31;4941608;29;1288;-48
2023/02/08 02:13:44;;;;;;;;;;;;;;;16.72;35.26;102682.84;4966630;28;1105;-48
2023/02/08 02:16:09;;;;;;;;;;;;;;;16.99;34.92;102671.56;4958878;28;1023;-48
2023/02/08 02:18:35;;;;;;;;;;;;;;;15.97;36.59;102689.22;4941481;29;2068;-48
2023/02/08 02:21:09;;;;;;;;;;;;;;;15.50;37.46;102684.03;4941205;29;2517;-49
2023/02/08 02:23:50;;;;;;;;;;;;;;;16.11;36.70;102694.63;4958425;29;1902;-50
2023/02/08 02:26:21;;;;;;;;;;;;;;;17.41;34.19;102690.91;4958184;29;1182;-43
2023/02/08 02:29:02;;;;;;;;;;;;;;;16.59;35.42;102697.56;4941340;29;1155;-46
2023/02/08 02:31:48;;;;;;;;;;;;;;;15.83;36.96;102698.63;4958153;28;1189;-45
2023/02/08 02:34:29;;;;;;;;;;;;;;;15.44;37.66;102692.28;4951237;28;1606;-48
2023/02/08 02:36:54;;;;;;;;;;;;;;;15.45;37.86;102699.44;4961201;28;1436;-44
2023/02/08 02:39:22;;;;;;;;;;;;;;;17.01;34.62;102688.69;4957829;29;1053;-45
2023/02/08 02:44:57;;;;;;;;;;;;;;;16.00;36.51;102697.00;4960189;28;1981;-45
2023/02/08 02:47:28;;;;;;;;;;;;;;;15.56;37.54;102704.22;4958302;28;1109;-48
2023/02/08 02:50:01;;;;;;;;;;;;;;;15.24;38.02;102709.66;4957689;28;1113;-45
2023/02/08 02:52:32;;;;;;;;;;;;;;;16.82;35.25;102703.44;4972215;28;1065;-44
2023/02/08 02:54:58;;;;;;;;;;;;;;;17.15;34.46;102710.50;4941196;29;1333;-46
2023/02/08 02:57:24;;;;;;;;;;;;;;;16.03;36.62;102717.66;4958077;28;1122;-48
2023/02/08 02:59:50;;;;;;;;;;;;;;;15.57;37.56;102717.72;4940856;29;1321;-50
2023/02/08 03:02:15;;;;;;;;;;;;;;;15.85;36.85;102715.69;4940345;29;1189;-49
2023/02/08 03:04:41;;;;;;;;;;;;;;;17.23;34.51;102712.94;4958304;28;1907;-47
2023/02/08 03:07:06;;;;;;;;;;;;;;;16.56;35.55;102724.63;4957609;29;1137;-46
2023/02/08 03:09:31;;;;;;;;;;;;;;;15.79;36.82;102724.78;4957742;29;1170;-47
2023/02/08 03:12:04;;;;;;;;;;;;;;;15.44;37.90;102730.66;4957783;28;1065;-50
2023/02/08 03:14:33;;;;;;;;;;;;;;;17.00;34.95;102730.97;4940172;29;888;-50
2023/02/08 03:17:07;;;;;;;;;;;;;;;17.04;34.67;102726.69;4940615;29;1067;-49
2023/02/08 03:19:38;;;;;;;;;;;;;;;16.00;36.36;102729.94;4940838;29;1065;-47
2023/02/08 03:22:03;;;;;;;;;;;;;;;15.57;37.38;102736.06;4957582;28;1078;-48
2023/02/08 03:24:44;;;;;;;;;;;;;;;15.33;37.85;102738.50;4957514;28;1910;-50
2023/02/08 03:27:29;;;;;;;;;;;;;;;16.67;35.27;102723.88;4944447;29;896;-51
2023/02/08 03:29:58;;;;;;;;;;;;;;;16.91;34.97;102729.56;4949975;28;1414;-47
2023/02/08 03:32:39;;;;;;;;;;;;;;;15.91;36.75;102723.03;4940626;29;1158;-44
2023/02/08 03:35:19;;;;;;;;;;;;;;;15.49;37.52;102725.38;4957430;28;1038;-47
2023/02/08 03:37:48;;;;;;;;;;;;;;;15.95;36.91;102716.06;4958876;28;1141;-46
2023/02/08 03:40:26;;;;;;;;;;;;;;;17.24;34.13;102720.13;4958060;28;1122;-48
2023/02/08 03:42:51;;;;;;;;;;;;;;;16.36;35.77;102720.16;4957373;28;1081;-49
2023/02/08 03:45:18;;;;;;;;;;;;;;;15.70;36.94;102716.81;4940633;29;1910;-48
2023/02/08 03:47:44;;;;;;;;;;;;;;;15.36;37.71;102721.63;4940121;28;1130;-51
2023/02/08 03:50:09;;;;;;;;;;;;;;;16.41;35.94;102719.47;4945703;28;1071;-44
2023/02/08 03:52:35;;;;;;;;;;;;;;;17.44;33.74;102717.94;4975118;28;1037;-47
2023/02/08 03:55:02;;;;;;;;;;;;;;;16.38;35.76;102725.41;4959950;28;1273;-45
2023/02/08 03:57:28;;;;;;;;;;;;;;;15.72;36.86;102724.81;4944037;28;1190;-52
2023/02/08 04:00:00;;;;;;;;;;;;;;;15.37;37.60;102736.16;4944330;29;1039;-48
2023/02/08 04:02:27;;;;;;;;;;;;;;;15.76;36.76;102730.72;4964301;28;1181;-49
2023/02/08 04:04:52;;;;;;;;;;;;;;;17.16;34.09;102734.16;4943677;29;1919;-48
2023/02/08 04:07:18;;;;;;;;;;;;;;;16.46;35.44;102743.53;4943918;29;1190;-44
2023/02/08 04:09:43;;;;;;;;;;;;;;;15.72;36.67;102735.78;4943983;29;1291;-50
2023/02/08 04:12:09;;;;;;;;;;;;;;;15.35;37.64;102747.34;4943284;29;1109;-47
2023/02/08 04:14:34;;;;;;;;;;;;;;;16.59;35.32;102748.88;4967787;28;1189;-46
2023/02/08 04:17:00;;;;;;;;;;;;;;;17.53;33.54;102739.63;4962423;28;2321;-50
2023/02/08 04:19:25;;;;;;;;;;;;;;;16.36;35.53;102749.50;4960157;28;2035;-51
2023/02/08 04:21:50;;;;;;;;;;;;;;;15.77;36.66;102757.06;4959944;28;1783;-50
2023/02/08 04:24:16;;;;;;;;;;;;;;;15.43;37.19;102764.59;4959903;28;2277;-55
2023/02/08 04:26:41;;;;;;;;;;;;;;;15.41;37.36;102764.81;4963699;28;2124;-54
2023/02/08 04:29:07;;;;;;;;;;;;;;;16.95;34.26;102771.19;4960098;28;2218;-49
2023/02/08 04:31:32;;;;;;;;;;;;;;;16.77;34.58;102776.41;4960183;28;2286;-53
2023/02/08 04:33:58;;;;;;;;;;;;;;;15.85;36.23;102790.59;4960007;28;1022;-48
2023/02/08 04:36:23;;;;;;;;;;;;;;;15.46;37.26;102791.59;4959801;28;1042;-49
2023/02/08 04:38:48;;;;;;;;;;;;;;;15.66;36.88;102807.97;4960353;28;931;-49
2023/02/08 04:41:14;;;;;;;;;;;;;;;17.13;34.09;102811.59;4959949;28;1041;-51
2023/02/08 04:43:39;;;;;;;;;;;;;;;16.70;34.75;102814.06;4959521;28;1974;-47
2023/02/08 04:46:05;;;;;;;;;;;;;;;15.88;36.33;102823.09;4959985;28;1076;-50
2023/02/08 04:48:30;;;;;;;;;;;;;;;15.47;36.95;102831.66;4959477;28;1113;-48
2023/02/08 04:50:56;;;;;;;;;;;;;;;16.06;36.21;102835.22;4960923;28;1308;-49
2023/02/08 04:53:22;;;;;;;;;;;;;;;17.33;33.88;102834.19;4959499;28;1110;-51
2023/02/08 04:55:47;;;;;;;;;;;;;;;16.38;35.33;102827.84;4960078;28;1174;-47
2023/02/08 04:58:13;;;;;;;;;;;;;;;15.71;36.63;102828.19;4958664;28;1477;-50
2023/02/08 05:00:38;;;;;;;;;;;;;;;15.50;36.88;102843.06;4973791;28;1157;-48
2023/02/08 05:03:04;;;;;;;;;;;;;;;17.07;34.03;102836.16;4961338;28;2102;-49
2023/02/08 05:05:29;;;;;;;;;;;;;;;16.81;34.49;102848.22;4960663;28;1986;-50
2023/02/08 05:07:54;;;;;;;;;;;;;;;16.11;35.75;102849.13;4978337;28;1030;-47
2023/02/08 05:10:20;;;;;;;;;;;;;;;15.75;36.22;102839.56;4975608;28;1053;-48
2023/02/08 05:12:45;;;;;;;;;;;;;;;15.44;36.88;102854.03;4969569;28;1050;-48
2023/02/08 05:15:11;;;;;;;;;;;;;;;16.64;34.53;102847.94;4965663;28;1150;-51
2023/02/08 05:17:37;;;;;;;;;;;;;;;17.55;32.98;102845.59;4968777;28;1213;-51
2023/02/08 05:20:03;;;;;;;;;;;;;;;16.43;35.04;102857.38;4972360;28;1144;-45
2023/02/08 05:22:28;;;;;;;;;;;;;;;15.86;36.17;102847.13;4970566;28;1062;-50
2023/02/08 05:24:54;;;;;;;;;;;;;;;15.53;36.73;102858.22;4965959;28;1918;-50
2023/02/08 05:27:19;;;;;;;;;;;;;;;17.11;33.77;102855.81;4978332;28;1022;-51
2023/02/08 05:29:45;;;;;;;;;;;;;;;17.19;33.67;102860.16;4965174;28;1088;-55
2023/02/08 05:32:11;;;;;;;;;;;;;;;16.10;35.48;102869.41;4971694;28;1105;-49
2023/02/08 05:34:37;;;;;;;;;;;;;;;15.67;36.59;102869.97;4972575;28;1109;-55
2023/02/08 05:37:02;;;;;;;;;;;;;;;15.52;36.89;102879.31;4959114;29;1149;-58
2023/02/08 05:39:27;;;;;;;;;;;;;;;17.09;33.85;102880.75;4976523;28;1038;-57
2023/02/08 05:41:53;;;;;;;;;;;;;;;16.83;34.24;102878.22;4978623;28;1112;-55
2023/02/08 05:44:18;;;;;;;;;;;;;;;16.08;35.56;102891.56;4965808;28;1915;-55
2023/02/08 05:46:44;;;;;;;;;;;;;;;15.60;36.64;102891.97;4972149;28;1134;-53
2023/02/08 05:49:09;;;;;;;;;;;;;;;15.78;36.37;102904.13;4964179;28;1057;-51
2023/02/08 05:51:34;;;;;;;;;;;;;;;17.24;33.62;102896.91;4971322;28;1029;-43
2023/02/08 05:54:00;;;;;;;;;;;;;;;16.92;34.07;102896.16;4961253;28;1427;-54
2023/02/08 05:56:26;;;;;;;;;;;;;;;16.06;35.78;102898.34;4971662;28;1208;-47
2023/02/08 05:58:51;;;;;;;;;;;;;;;15.68;36.51;102908.19;4952464;28;1027;-49
2023/02/08 06:01:17;;;;;;;;;;;;;;;15.39;36.98;102910.34;4993326;28;1037;-49
2023/02/08 06:03:42;;;;;;;;;;;;;;;16.87;34.61;102902.28;4958786;28;1974;-55
2023/02/08 06:06:10;;;;;;;;;;;;;;;17.36;33.40;102902.53;4966287;28;1137;-50
2023/02/08 06:08:35;;;;;;;;;;;;;;;16.24;35.43;102905.84;4978073;28;1120;-51
2023/02/08 06:11:00;;;;;;;;;;;;;;;15.72;36.44;102917.66;4977761;28;1128;-54
2023/02/08 06:13:28;;;;;;;;;;;;;;;15.54;37.15;102920.22;4977901;28;1154;-49
2023/02/08 06:15:53;;;;;;;;;;;;;;;17.09;34.03;102916.50;4977813;28;859;-48
2023/02/08 06:18:19;;;;;;;;;;;;;;;17.63;33.06;102899.47;4965318;28;1173;-58
2023/02/08 06:20:44;;;;;;;;;;;;;;;16.28;35.46;102906.28;4978064;28;1308;-50
2023/02/08 06:23:10;;;;;;;;;;;;;;;15.64;36.68;102911.56;4976428;28;1060;-51
2023/02/08 06:25:35;;;;;;;;;;;;;;;15.44;37.35;102911.59;4965966;28;1977;-52
2023/02/08 06:28:01;;;;;;;;;;;;;;;16.01;36.16;102909.97;4977416;28;1053;-47
2023/02/08 06:30:27;;;;;;;;;;;;;;;15.73;36.38;102919.31;4970449;28;1181;-46
2023/02/08 06:32:52;;;;;;;;;;;;;;;15.25;37.35;102919.66;4972330;28;1046;-48
2023/02/08 06:35:18;;;;;;;;;;;;;;;16.62;34.72;102927.00;4969538;28;1631;-47
2023/02/08 06:37:43;;;;;;;;;;;;;;;15.55;36.73;102919.16;4969198;28;1238;-51
2023/02/08 06:40:09;;;;;;;;;;;;;;;16.40;35.59;102923.75;4960081;28;1394;-52
2023/02/08 06:42:34;;;;;;;;;;;;;;;16.10;35.56;102923.47;4955578;28;995;-54
2023/02/08 06:45:00;;;;;;;;;;;;;;;16.14;35.64;102911.81;4973117;28;1911;-49
2023/02/08 06:47:26;;;;;;;;;;;;;;;17.56;33.15;102905.03;4958774;28;1103;-52
2023/02/08 06:49:52;;;;;;;;;;;;;;;16.15;35.65;102904.44;4978217;28;1085;-53
2023/02/08 06:52:17;;;;;;;;;;;;;;;17.87;32.83;102905.97;4963836;28;1205;-48
2023/02/08 06:54:43;;;;;;;;;;;;;;;17.18;33.56;102907.97;4961308;28;1113;-50
2023/02/08 06:57:11;;;;;;;;;;;;;;;17.05;34.33;102908.94;4967423;28;1034;-55
2023/02/08 06:59:36;;;;;;;;;;;;;;;18.49;31.54;102912.38;4965055;28;1093;-49
2023/02/08 07:02:02;;;;;;;;;;;;;;;16.72;34.69;102905.34;4957745;28;1252;-50
2023/02/08 07:04:27;;;;;;;;;;;;;;;16.16;35.64;102906.09;4969919;28;1902;-54
2023/02/08 07:06:53;;;;;;;;;;;;;;;16.18;35.78;102912.22;4970614;28;1030;-52
2023/02/08 07:09:18;;;;;;;;;;;;;;;16.59;34.89;102911.78;4965336;28;1228;-55
2023/02/08 07:11:43;;;;;;;;;;;;;;;17.31;33.89;102912.50;4970650;28;1118;-51
2023/02/08 07:14:12;;;;;;;;;;;;;;;18.49;31.52;102909.63;4970594;28;1138;-52
2023/02/08 07:16:38;;;;;;;;;;;;;;;16.85;34.27;102906.31;4957170;28;871;-53
2023/02/08 07:19:03;;;;;;;;;;;;;;;16.13;35.87;102912.03;4976711;28;1095;-53
2023/02/08 07:21:29;;;;;;;;;;;;;;;17.45;33.50;102903.88;4977301;28;1398;-57
2023/02/08 07:23:54;;;;;;;;;;;;;;;16.33;35.40;102911.97;4963546;28;1982;-51
2023/02/08 07:26:19;;;;;;;;;;;;;;;16.41;35.32;102909.78;4956661;29;1312;-56
2023/02/08 07:28:45;;;;;;;;;;;;;;;16.95;33.98;102886.63;4974581;28;1138;-53
2023/02/08 07:31:11;;;;;;;;;;;;;;;16.12;35.99;102899.38;4967477;28;1119;-49
2023/02/08 07:33:37;;;;;;;;;;;;;;;17.90;32.69;102885.41;4961455;29;1238;-45
2023/02/08 07:36:04;;;;;;;;;;;;;;;16.66;34.73;102877.94;4961610;29;1241;-49
2023/02/08 07:38:29;;;;;;;;;;;;;;;17.27;33.93;102890.13;4970484;28;1204;-44
2023/02/08 07:41:01;;;;;;;;;;;;;;;17.76;32.46;102882.78;4976537;28;1125;-48
2023/02/08 07:43:27;;;;;;;;;;;;;;;16.52;34.81;102885.41;4980788;28;2050;-48
2023/02/08 07:45:57;;;;;;;;;;;;;;;16.17;35.72;102885.84;4993527;28;1077;-50
2023/02/08 07:48:23;;;;;;;;;;;;;;;17.41;33.18;102882.56;4980316;28;1073;-50
2023/02/08 07:50:48;;;;;;;;;;;;;;;16.52;35.15;102867.06;4972826;28;854;-49
2023/02/08 07:53:14;;;;;;;;;;;;;;;18.33;31.78;102884.44;4972629;28;939;-44
2023/02/08 07:55:40;;;;;;;;;;;;;;;17.47;33.05;102880.81;4963456;28;1156;-49
2023/02/08 07:58:05;;;;;;;;;;;;;;;16.57;34.60;102883.69;4973340;28;1069;-49
2023/02/08 08:00:31;;;;;;;;;;;;;;;16.24;35.35;102887.50;4961030;29;1342;-47
2023/02/08 08:02:57;;;;;;;;;;;;;;;17.58;32.90;102891.06;4961842;28;1261;-56
2023/02/08 08:05:22;;;;;;;;;;;;;;;16.57;34.81;102893.84;4960483;28;1960;-59
2023/02/08 08:07:48;;;;;;;;;;;;;;;17.71;32.76;102901.94;4960460;29;1288;-55
2023/02/08 08:10:13;;;;;;;;;;;;;;;18.00;32.16;102895.91;4960389;28;1254;-54
2023/02/08 08:12:38;;;;;;;;;;;;;;;16.73;34.34;102897.94;4961078;29;1323;-52
2023/02/08 08:15:04;;;;;;;;;;;;;;;17.36;33.45;102898.91;4961071;28;1235;-55
2023/02/08 08:17:29;;;;;;;;;;;;;;;16.85;34.24;102898.91;4959968;28;1230;-50
2023/02/08 08:19:55;;;;;;;;;;;;;;;16.58;34.90;102909.28;4960258;29;1256;-46
2023/02/08 08:22:20;;;;;;;;;;;;;;;17.99;32.04;102900.53;4960815;29;1285;-51
2023/02/08 08:24:46;;;;;;;;;;;;;;;16.69;34.65;102900.31;4959953;28;1905;-46
2023/02/08 08:27:11;;;;;;;;;;;;;;;17.70;33.01;102894.75;4960209;28;1061;-54
2023/02/08 08:29:37;;;;;;;;;;;;;;;17.31;33.47;102899.59;4975233;28;925;-56
2023/02/08 08:32:03;;;;;;;;;;;;;;;16.51;34.72;102903.81;4979200;28;1144;-48
2023/02/08 08:34:28;;;;;;;;;;;;;;;17.77;32.60;102901.00;4979256;28;1081;-54
2023/02/08 08:36:54;;;;;;;;;;;;;;;16.46;35.05;102905.53;4979614;28;1128;-53
2023/02/08 08:39:20;;;;;;;;;;;;;;;17.12;33.67;102890.47;4978793;28;1029;-55
2023/02/08 08:41:45;;;;;;;;;;;;;;;17.25;33.32;102905.97;4970989;28;1502;-52
2023/02/08 08:44:11;;;;;;;;;;;;;;;16.76;34.55;102903.84;4961623;28;1899;-56
2023/02/08 08:46:36;;;;;;;;;;;;;;;18.53;31.20;102897.06;4979056;28;1057;-54
2023/02/08 08:49:02;;;;;;;;;;;;;;;16.97;33.79;102899.06;4961020;28;1038;-54
2023/02/08 08:51:27;;;;;;;;;;;;;;;16.46;34.77;102894.56;4972232;28;1109;-50
2023/02/08 08:53:53;;;;;;;;;;;;;;;17.42;33.31;102882.34;4960361;28;940;-58
2023/02/08 08:56:18;;;;;;;;;;;;;;;16.51;35.02;102892.81;4962904;28;1050;-55
2023/02/08 08:58:44;;;;;;;;;;;;;;;16.15;35.73;102898.97;4957964;28;929;-56
2023/02/08 09:01:09;;;;;;;;;;;;;;;16.96;34.06;102893.78;4974430;28;1462;-55
2023/02/08 09:03:35;;;;;;;;;;;;;;;16.38;35.20;102881.91;4978946;28;1967;-56
2023/02/08 09:06:00;;;;;;;;;;;;;;;18.26;31.87;102891.94;4965203;28;946;-54
2023/02/08 09:08:25;;;;;;;;;;;;;;;17.00;33.71;102892.25;4970056;28;1177;-55
2023/02/08 09:10:51;;;;;;;;;;;;;;;16.63;34.83;102895.69;4959348;28;1300;-51
2023/02/08 09:13:18;;;;;;;;;;;;;;;17.55;32.92;102888.78;4959061;29;1383;-54
2023/02/08 09:15:44;;;;;;;;;;;;;;;16.50;34.86;102869.16;4958237;29;1213;-55
2023/02/08 09:18:09;;;;;;;;;;;;;;;16.16;35.42;102886.88;4959029;28;1285;-53
2023/02/08 09:20:36;;;;;;;;;;;;;;;17.20;33.31;102892.09;4962386;28;1424;-51
2023/02/08 09:23:02;;;;;;;;;;;;;;;16.38;34.93;102888.28;4978896;28;1125;-53
2023/02/08 09:25:27;;;;;;;;;;;;;;;18.18;32.00;102895.03;4962403;28;1910;-50
2023/02/08 09:27:52;;;;;;;;;;;;;;;17.04;33.77;102886.09;4958286;28;1093;-53
2023/02/08 09:30:18;;;;;;;;;;;;;;;16.40;34.92;102880.63;4968536;28;1205;-56
2023/02/08 09:32:44;;;;;;;;;;;;;;;16.72;34.53;102886.13;4966505;28;1105;-41
2023/02/08 09:35:12;;;;;;;;;;;;;;;16.82;34.16;102876.56;4958981;28;1157;-48
2023/02/08 09:37:37;;;;;;;;;;;;;;;17.37;33.11;102884.94;4957686;28;1085;-49
2023/02/08 09:40:03;;;;;;;;;;;;;;;18.41;31.06;102884.09;4969076;28;1042;-45
2023/02/08 09:42:39;;;;;;;;;;;;;;;16.95;33.63;102883.88;4963242;28;1028;-48
2023/02/08 09:45:20;;;;;;;;;;;;;;;16.70;34.24;102898.41;4940196;28;1906;-49
2023/02/08 09:47:49;;;;;;;;;;;;;;;17.11;33.31;102899.78;4958432;28;1098;-49
2023/02/08 09:50:30;;;;;;;;;;;;;;;16.31;34.90;102898.41;4958823;28;1116;-48
2023/02/08 09:53:14;;;;;;;;;;;;;;;17.81;32.16;102895.03;4946033;28;964;-51
2023/02/08 09:55:41;;;;;;;;;;;;;;;16.50;34.67;102898.53;4963546;28;1092;-51
2023/02/08 09:58:11;;;;;;;;;;;;;;;17.41;33.15;102901.81;4941434;29;1098;-48
2023/02/08 10:00:41;;;;;;;;;;;;;;;16.84;33.76;102907.38;4958987;28;1134;-45
2023/02/08 10:03:07;;;;;;;;;;;;;;;16.80;34.30;102906.97;4958846;28;1157;-50
2023/02/08 10:05:34;;;;;;;;;;;;;;;17.79;32.44;102915.38;4952181;29;2252;-52
2023/02/08 10:08:00;;;;;;;;;;;;;;;16.64;34.14;102911.13;4957808;28;1141;-53
2023/02/08 10:10:39;;;;;;;;;;;;;;;18.08;32.07;102920.34;4942024;29;1117;-55
2023/02/08 10:13:21;;;;;;;;;;;;;;;17.18;33.55;102918.97;4958683;28;1157;-51
2023/02/08 10:15:49;;;;;;;;;;;;;;;16.81;34.22;102922.41;4941350;29;1257;-55
2023/02/08 10:18:17;;;;;;;;;;;;;;;17.65;32.78;102921.25;4951295;29;1095;-52
2023/02/08 10:20:51;;;;;;;;;;;;;;;16.66;34.49;102922.75;4958285;28;1162;-52
2023/02/08 10:23:35;;;;;;;;;;;;;;;17.86;32.42;102914.44;4958502;28;1085;-51
2023/02/08 10:26:19;;;;;;;;;;;;;;;16.81;33.91;102907.84;4972932;28;1085;-54
2023/02/08 10:28:47;;;;;;;;;;;;;;;16.35;35.22;102923.53;4977152;28;1077;-55
2023/02/08 10:31:21;;;;;;;;;;;;;;;16.79;34.20;102909.94;4977048;28;1092;-46
2023/02/08 10:34:07;;;;;;;;;;;;;;;16.72;34.29;102910.84;4978059;28;1053;-47
2023/02/08 10:36:33;;;;;;;;;;;;;;;18.09;31.73;102913.75;4955292;28;1236;-49
2023/02/08 10:38:58;;;;;;;;;;;;;;;16.83;33.92;102911.19;4992058;28;1100;-50
2023/02/08 10:41:25;;;;;;;;;;;;;;;17.79;32.52;102923.63;4992701;28;1077;-55
2023/02/08 10:43:53;;;;;;;;;;;;;;;17.36;33.00;102927.28;4990445;28;1902;-52
2023/02/08 10:46:34;;;;;;;;;;;;;;;16.62;34.58;102923.38;4966290;28;1110;-51
2023/02/08 10:49:15;;;;;;;;;;;;;;;17.81;32.19;102922.53;4978315;28;1129;-54
2023/02/08 10:51:40;;;;;;;;;;;;;;;16.72;34.54;102926.50;4959661;28;1022;-55
2023/02/08 10:54:09;;;;;;;;;;;;;;;18.55;31.49;102923.31;4972455;28;1007;-50
2023/02/08 10:56:34;;;;;;;;;;;;;;;17.37;33.06;102906.94;4983409;28;1290;-53
2023/02/08 10:59:00;;;;;;;;;;;;;;;16.64;34.44;102919.34;4957439;28;1263;-56
2023/02/08 11:01:26;;;;;;;;;;;;;;;16.37;35.25;102919.53;4957212;29;1257;-54
2023/02/08 11:04:05;;;;;;;;;;;;;;;17.50;32.85;102905.13;4969337;28;1883;-57
2023/02/08 11:06:30;;;;;;;;;;;;;;;16.59;34.89;102913.69;4964754;28;1094;-54
2023/02/08 11:08:57;;;;;;;;;;;;;;;18.45;31.57;102910.09;4967047;28;1126;-61
2023/02/08 11:11:23;;;;;;;;;;;;;;;17.30;33.26;102905.31;4961339;28;1146;-60
2023/02/08 11:13:52;;;;;;;;;;;;;;;16.60;34.50;102912.63;4950048;28;1126;-52
2023/02/08 11:16:26;;;;;;;;;;;;;;;16.74;34.48;102905.97;4978594;28;1224;-53
2023/02/08 11:19:00;;;;;;;;;;;;;;;16.86;34.28;102908.00;4972511;28;993;-57
2023/02/08 11:21:28;;;;;;;;;;;;;;;17.40;33.57;102903.75;4981223;28;1062;-57
2023/02/08 11:23:53;;;;;;;;;;;;;;;18.24;31.60;102905.09;4987713;28;1903;-57
2023/02/08 11:26:37;;;;;;;;;;;;;;;16.86;34.06;102906.09;4992147;28;1048;-56
2023/02/08 11:29:23;;;;;;;;;;;;;;;17.54;33.10;102901.66;4969005;28;1069;-53
2023/02/08 11:31:56;;;;;;;;;;;;;;;16.92;34.13;102912.63;4976750;28;1217;-54
2023/02/08 11:34:31;;;;;;;;;;;;;;;16.32;35.09;102910.25;4968826;28;1192;-54
2023/02/08 11:36:57;;;;;;;;;;;;;;;17.60;33.02;102911.78;4959915;28;1117;-55
2023/02/08 11:39:25;;;;;;;;;;;;;;;16.55;34.84;102923.41;4957002;29;1221;-57
2023/02/08 11:41:51;;;;;;;;;;;;;;;17.27;33.81;102923.13;4954783;28;1167;-58
2023/02/08 11:44:21;;;;;;;;;;;;;;;17.03;33.81;102933.88;4940043;29;1911;-56
2023/02/08 11:46:47;;;;;;;;;;;;;;;16.81;34.63;102947.13;4956205;28;1307;-57
2023/02/08 11:49:22;;;;;;;;;;;;;;;18.23;31.56;102939.22;4956875;28;1412;-51
2023/02/08 11:51:48;;;;;;;;;;;;;;;16.77;34.18;102952.25;4939097;29;1225;-52
2023/02/08 11:54:30;;;;;;;;;;;;;;;16.69;34.62;102958.00;4963186;28;1047;-55
2023/02/08 11:57:03;;;;;;;;;;;;;;;16.63;34.39;102950.63;4954852;29;1317;-51
2023/02/08 11:59:28;;;;;;;;;;;;;;;17.85;32.72;102949.41;4966253;28;1330;-54
2023/02/08 12:01:54;;;;;;;;;;;;;;;18.24;31.71;102938.13;4939648;29;1407;-53
2023/02/08 12:04:20;;;;;;;;;;;;;;;16.95;33.98;102945.16;4939967;29;1985;-57
2023/02/08 12:07:04;;;;;;;;;;;;;;;18.05;32.34;102940.09;4938727;29;1222;-55
2023/02/08 12:09:33;;;;;;;;;;;;;;;17.11;33.76;102941.03;4957521;28;1253;-52
2023/02/08 12:12:04;;;;;;;;;;;;;;;16.56;34.95;102931.47;4960723;28;1098;-46
2023/02/08 12:14:29;;;;;;;;;;;;;;;17.55;32.91;102930.03;4976500;28;1247;-53
2023/02/08 12:16:55;;;;;;;;;;;;;;;16.53;35.04;102934.63;4980162;28;1069;-54
2023/02/08 12:19:20;;;;;;;;;;;;;;;17.98;32.39;102926.41;4979311;28;1023;-50
2023/02/08 12:21:46;;;;;;;;;;;;;;;17.04;33.98;102916.34;4979547;28;1141;-51
2023/02/08 12:24:14;;;;;;;;;;;;;;;16.51;34.85;102927.66;4984755;28;1966;-51
2023/02/08 12:26:48;;;;;;;;;;;;;;;17.77;32.74;102912.00;4965617;28;1155;-47
2023/02/08 12:29:25;;;;;;;;;;;;;;;16.58;34.81;102914.75;4967100;28;1259;-48
2023/02/08 12:32:00;;;;;;;;;;;;;;;17.36;33.47;102924.53;4960479;28;1028;-54
2023/02/08 12:34:28;;;;;;;;;;;;;;;17.01;34.01;102911.31;4956879;28;1275;-46
2023/02/08 12:42:56;;;;;;;;;;;;;;;16.38;35.11;102915.72;4957836;28;1202;-60
2023/02/08 12:45:42;;;;;;;;;;;;;;;15.97;35.63;102925.19;4941917;29;1903;-56
2023/02/08 12:48:10;;;;;;;;;;;;;;;17.02;33.65;102912.97;4935686;28;1275;-59
2023/02/08 12:50:41;;;;;;;;;;;;;;;17.32;33.49;102906.78;4963108;28;1114;-57
2023/02/08 12:53:07;;;;;;;;;;;;;;;18.67;30.79;102905.97;4960421;28;1250;-59
2023/02/08 12:55:34;;;;;;;;;;;;;;;17.34;32.92;102912.88;4960113;28;999;-58
2023/02/08 12:58:20;;;;;;;;;;;;;;;16.58;34.65;102920.25;4948577;29;1142;-57
2023/02/08 13:00:45;;;;;;;;;;;;;;;16.06;35.53;102906.56;4940132;28;1149;-60